createdAt,value
2023-01-25T00:02:29.858Z,6.00
2023-01-25T00:04:59.803Z,5.70
2023-01-25T00:07:35.402Z,5.57
2023-01-25T00:10:21.247Z,5.73
2023-01-25T00:12:55.761Z,5.63
2023-01-25T00:15:36.345Z,5.00
2023-01-25T00:18:21.279Z,5.93
2023-01-25T00:20:53.645Z,5.87
2023-01-25T00:23:27.787Z,5.37
2023-01-25T00:26:10.917Z,5.63
2023-01-25T00:28:47.031Z,4.93
2023-01-25T00:31:29.024Z,4.60
2023-01-25T00:34:16.278Z,5.07
2023-01-25T00:36:48.533Z,4.90
2023-01-25T00:39:49.006Z,4.53
2023-01-25T00:42:19.948Z,4.33
2023-01-25T00:44:55.790Z,4.70
2023-01-25T00:47:32.989Z,4.97
2023-01-25T00:50:07.689Z,4.97
2023-01-25T00:53:16.071Z,4.93
2023-01-25T00:55:55.591Z,5.30
2023-01-25T00:58:34.601Z,4.90
2023-01-25T01:01:05.336Z,4.10
2023-01-25T01:03:37.578Z,4.50
2023-01-25T01:06:12.557Z,5.13
2023-01-25T01:08:46.778Z,5.17
2023-01-25T01:11:20.906Z,4.57
2023-01-25T01:13:56.966Z,4.90
2023-01-25T01:16:28.899Z,4.63
2023-01-25T01:19:07.051Z,5.23
2023-01-25T01:21:37.946Z,4.97
2023-01-25T01:24:13.103Z,4.47
2023-01-25T01:26:44.491Z,5.47
2023-01-25T01:29:18.096Z,4.50
2023-01-25T01:31:49.525Z,5.23
2023-01-25T01:34:17.972Z,4.77
2023-01-25T01:36:49.920Z,5.43
2023-01-25T01:39:18.592Z,4.80
2023-01-25T01:41:48.905Z,5.80
2023-01-25T01:44:41.127Z,4.93
2023-01-25T01:47:26.102Z,4.57
2023-01-25T01:50:01.472Z,5.97
2023-01-25T01:52:59.759Z,5.60
2023-01-25T01:55:41.765Z,5.77
2023-01-25T01:58:14.601Z,5.67
2023-01-25T02:00:50.296Z,5.40
2023-01-25T02:03:41.560Z,6.20
2023-01-25T02:06:18.817Z,5.70
2023-01-25T02:09:10.121Z,5.63
2023-01-25T02:11:52.117Z,5.60
2023-01-25T02:14:25.317Z,5.43
2023-01-25T02:17:00.188Z,5.70
2023-01-25T02:19:46.776Z,5.83
2023-01-25T02:22:30.796Z,5.43
2023-01-25T02:25:13.444Z,4.97
2023-01-25T02:27:57.335Z,5.50
2023-01-25T02:30:35.560Z,5.97
2023-01-25T02:33:16.565Z,5.97
2023-01-25T02:35:54.776Z,5.30
2023-01-25T02:38:30.201Z,5.47
2023-01-25T02:41:10.018Z,5.43
2023-01-25T02:43:39.771Z,5.27
2023-01-25T02:46:22.564Z,5.77
2023-01-25T02:49:01.357Z,5.90
2023-01-25T02:51:43.671Z,6.03
2023-01-25T02:54:23.759Z,6.33
2023-01-25T02:56:58.693Z,6.00
2023-01-25T02:59:44.477Z,6.43
2023-01-25T03:02:28.511Z,5.43
2023-01-25T03:05:02.532Z,6.23
2023-01-25T03:07:35.416Z,5.93
2023-01-25T03:10:12.269Z,5.27
2023-01-25T03:12:52.043Z,6.10
2023-01-25T03:15:28.976Z,6.23
2023-01-25T03:18:05.280Z,5.90
2023-01-25T03:20:50.437Z,5.67
2023-01-25T03:23:45.042Z,6.13
2023-01-25T03:26:20.918Z,6.33
2023-01-25T03:29:02.062Z,6.70
2023-01-25T03:31:35.004Z,5.73
2023-01-25T03:34:16.673Z,5.93
2023-01-25T03:36:50.807Z,6.03
2023-01-25T03:39:31.243Z,6.27
2023-01-25T03:42:05.527Z,5.57
2023-01-25T03:44:39.487Z,6.30
2023-01-25T03:47:20.133Z,6.13
2023-01-25T03:49:48.701Z,6.43
2023-01-25T03:52:41.639Z,6.20
2023-01-25T03:55:14.501Z,6.00
2023-01-25T03:57:51.360Z,5.17
2023-01-25T04:00:30.483Z,5.03
2023-01-25T04:03:07.153Z,5.03
2023-01-25T04:05:58.130Z,4.60
2023-01-25T04:08:36.959Z,4.67
2023-01-25T04:11:13.771Z,5.37
2023-01-25T04:13:52.811Z,5.03
2023-01-25T04:16:31.649Z,5.33
2023-01-25T04:19:06.136Z,4.17
2023-01-25T04:21:42.500Z,4.07
2023-01-25T04:24:24.439Z,4.97
2023-01-25T04:26:58.535Z,4.77
2023-01-25T04:29:40.521Z,4.43
2023-01-25T04:32:17.229Z,5.33
2023-01-25T04:34:45.854Z,5.20
2023-01-25T04:37:27.541Z,4.43
2023-01-25T04:40:00.805Z,4.70
2023-01-25T04:42:39.284Z,4.70
2023-01-25T04:45:11.625Z,4.70
2023-01-25T04:47:49.183Z,5.30
2023-01-25T04:50:24.857Z,4.43
2023-01-25T04:53:08.425Z,3.87
2023-01-25T04:55:40.037Z,5.03
2023-01-25T04:58:12.634Z,5.13
2023-01-25T05:00:45.970Z,6.07
2023-01-25T05:03:23.538Z,4.83
2023-01-25T05:06:01.277Z,5.10
2023-01-25T05:08:42.421Z,5.33
2023-01-25T05:11:29.058Z,4.87
2023-01-25T05:14:13.784Z,4.90
2023-01-25T05:16:49.842Z,5.03
2023-01-25T05:19:29.826Z,5.23
2023-01-25T05:22:07.703Z,4.97
2023-01-25T05:24:42.112Z,4.70
2023-01-25T05:27:22.891Z,4.43
2023-01-25T05:29:57.197Z,4.13
2023-01-25T05:32:32.633Z,4.13
2023-01-25T05:35:10.478Z,4.27
2023-01-25T05:37:43.315Z,4.20
2023-01-25T05:40:20.950Z,5.00
2023-01-25T05:42:55.655Z,4.13
2023-01-25T05:45:29.915Z,3.97
2023-01-25T05:48:08.043Z,3.67
2023-01-25T05:50:47.501Z,4.53
2023-01-25T05:53:19.660Z,4.70
2023-01-25T05:55:56.419Z,4.80
2023-01-25T05:58:24.423Z,5.10
2023-01-25T06:00:52.339Z,5.13
2023-01-25T06:03:20.395Z,5.10
2023-01-25T06:05:55.370Z,5.60
2023-01-25T06:08:23.363Z,4.77
2023-01-25T06:10:51.715Z,3.80
2023-01-25T06:13:19.852Z,5.17
2023-01-25T06:15:53.750Z,5.13
2023-01-25T06:18:22.402Z,5.37
2023-01-25T06:20:51.761Z,5.20
2023-01-25T06:23:28.492Z,5.20
2023-01-25T06:25:59.820Z,4.73
2023-01-25T06:28:27.778Z,5.10
2023-01-25T06:30:56.020Z,4.90
2023-01-25T06:33:24.364Z,4.60
2023-01-25T06:35:53.673Z,4.93
2023-01-25T06:38:21.636Z,4.67
2023-01-25T06:40:49.612Z,4.93
2023-01-25T06:43:17.574Z,4.33
2023-01-25T06:45:48.455Z,4.90
2023-01-25T06:48:16.378Z,4.40
2023-01-25T06:50:44.361Z,3.80
2023-01-25T06:53:13.682Z,5.27
2023-01-25T06:55:41.618Z,4.73
2023-01-25T06:58:09.545Z,5.10
2023-01-25T07:00:38.071Z,4.90
2023-01-25T07:03:06.080Z,5.80
2023-01-25T07:05:34.511Z,4.90
2023-01-25T07:08:02.481Z,5.53
2023-01-25T07:10:41.125Z,5.53
2023-01-25T07:13:09.099Z,5.87
2023-01-25T07:15:37.065Z,5.57
2023-01-25T07:18:15.738Z,5.67
2023-01-25T07:20:44.399Z,5.50
2023-01-25T07:23:12.350Z,5.03
2023-01-25T07:25:46.972Z,5.93
2023-01-25T07:28:15.203Z,5.17
2023-01-25T07:30:44.275Z,6.30
2023-01-25T07:33:12.671Z,5.57
2023-01-25T07:35:40.647Z,4.90
2023-01-25T07:38:08.585Z,4.47
2023-01-25T07:40:36.601Z,5.97
2023-01-25T07:43:05.915Z,5.57
2023-01-25T07:45:48.746Z,5.60
2023-01-25T07:48:17.312Z,4.50
2023-01-25T07:50:46.516Z,4.73
2023-01-25T07:53:14.581Z,5.27
2023-01-25T07:55:42.557Z,4.87
2023-01-25T07:58:12.555Z,5.30
2023-01-25T08:00:40.754Z,4.47
2023-01-25T08:03:10.119Z,4.63
2023-01-25T08:05:39.519Z,4.77
2023-01-25T08:08:08.803Z,5.00
2023-01-25T08:10:36.793Z,5.23
2023-01-25T08:13:05.019Z,4.67
2023-01-25T08:15:34.865Z,4.70
2023-01-25T08:18:02.880Z,4.73
2023-01-25T08:20:30.844Z,5.10
2023-01-25T08:22:58.859Z,5.33
2023-01-25T08:25:26.852Z,5.47
2023-01-25T08:27:55.270Z,6.20
2023-01-25T08:30:23.492Z,4.77
2023-01-25T08:32:53.070Z,5.37
2023-01-25T08:35:21.301Z,4.80
2023-01-25T08:37:49.328Z,4.73
2023-01-25T08:40:17.502Z,4.90
2023-01-25T08:42:45.465Z,5.20
2023-01-25T08:45:13.519Z,5.03
2023-01-25T08:47:41.489Z,4.83
2023-01-25T08:50:12.759Z,4.90
2023-01-25T08:52:40.848Z,4.60
2023-01-25T08:55:09.548Z,4.50
2023-01-25T08:57:37.582Z,4.67
2023-01-25T09:00:06.492Z,4.67
2023-01-25T09:02:34.596Z,4.37
2023-01-25T09:05:02.707Z,4.20
2023-01-25T09:07:32.447Z,4.33
2023-01-25T09:10:00.570Z,4.90
2023-01-25T09:12:28.615Z,4.50
2023-01-25T09:14:56.596Z,4.77
2023-01-25T09:17:24.563Z,4.97
2023-01-25T09:19:52.537Z,4.27
2023-01-25T09:22:20.532Z,4.10
2023-01-25T09:24:52.287Z,4.47
2023-01-25T09:27:20.370Z,4.90
2023-01-25T09:30:00.934Z,4.47
2023-01-25T09:32:30.353Z,4.03
2023-01-25T09:34:58.365Z,4.30
2023-01-25T09:37:26.408Z,4.57
2023-01-25T09:39:55.747Z,4.77
2023-01-25T09:42:39.084Z,4.47
2023-01-25T09:45:23.092Z,4.23
2023-01-25T09:47:59.168Z,4.07
2023-01-25T09:51:02.724Z,5.17
2023-01-25T09:53:35.737Z,4.03
2023-01-25T09:56:11.039Z,4.50
2023-01-25T09:58:43.924Z,4.57
2023-01-25T10:01:39.061Z,4.07
2023-01-25T10:04:14.155Z,5.10
2023-01-25T10:06:55.056Z,5.13
2023-01-25T10:09:35.203Z,4.40
2023-01-25T10:12:20.514Z,4.30
2023-01-25T10:14:50.424Z,4.57
2023-01-25T10:17:27.934Z,4.80
2023-01-25T10:20:10.953Z,4.30
2023-01-25T10:22:46.359Z,5.43
2023-01-25T10:25:32.415Z,4.60
2023-01-25T10:28:10.732Z,4.70
2023-01-25T10:30:46.230Z,4.20
2023-01-25T10:33:19.077Z,5.17
2023-01-25T10:35:49.681Z,4.00
2023-01-25T10:38:22.607Z,4.03
2023-01-25T10:40:56.418Z,3.80
2023-01-25T10:43:25.749Z,3.80
2023-01-25T10:45:53.708Z,4.67
2023-01-25T10:48:24.015Z,4.47
2023-01-25T10:51:05.437Z,4.60
2023-01-25T10:53:35.837Z,4.23
2023-01-25T10:56:20.548Z,4.70
2023-01-25T10:58:54.293Z,3.77
2023-01-25T11:01:29.500Z,4.33
2023-01-25T11:03:58.047Z,3.70
2023-01-25T11:06:35.165Z,3.90
2023-01-25T11:09:23.801Z,4.40
2023-01-25T11:11:56.807Z,4.37
2023-01-25T11:14:28.896Z,4.10
2023-01-25T11:16:58.145Z,4.17
2023-01-25T11:19:33.425Z,4.47
2023-01-25T11:22:03.675Z,4.60
2023-01-25T11:24:33.306Z,4.43
2023-01-25T11:27:18.498Z,4.20
2023-01-25T11:30:07.594Z,4.37
2023-01-25T11:32:36.004Z,3.97
2023-01-25T11:35:04.125Z,4.13
2023-01-25T11:37:53.342Z,4.20
2023-01-25T11:40:30.053Z,4.17
2023-01-25T11:43:08.052Z,4.63
2023-01-25T11:46:04.018Z,4.87
2023-01-25T11:48:57.204Z,3.77
2023-01-25T11:51:30.240Z,4.50
2023-01-25T11:54:36.242Z,4.30
2023-01-25T11:57:20.944Z,4.30
2023-01-25T12:00:01.991Z,4.87
2023-01-25T12:02:58.197Z,4.67
2023-01-25T12:05:54.586Z,6.50
2023-01-25T12:08:38.903Z,4.03
2023-01-25T12:11:16.680Z,4.43
2023-01-25T12:13:54.301Z,4.70
2023-01-25T12:16:44.963Z,4.30
2023-01-25T12:19:36.378Z,4.87
2023-01-25T12:22:21.230Z,5.07
2023-01-25T12:24:58.639Z,4.43
2023-01-25T12:27:38.578Z,4.63
2023-01-25T12:30:16.544Z,4.30
2023-01-25T12:32:50.249Z,4.17
2023-01-25T12:35:31.544Z,3.77
2023-01-25T12:38:04.543Z,4.60
2023-01-25T12:40:46.102Z,4.10
2023-01-25T12:43:19.453Z,4.73
2023-01-25T12:45:49.991Z,4.70
2023-01-25T12:48:22.442Z,4.57
2023-01-25T12:50:55.615Z,4.50
2023-01-25T12:53:27.789Z,4.93
2023-01-25T12:55:56.958Z,4.77
2023-01-25T12:58:37.809Z,4.50
2023-01-25T13:01:16.601Z,4.17
2023-01-25T13:03:59.799Z,4.47
2023-01-25T13:06:37.709Z,3.83
2023-01-25T13:09:13.358Z,6.23
2023-01-25T13:11:44.275Z,5.10
2023-01-25T13:14:31.364Z,4.27
2023-01-25T13:17:22.323Z,3.83
2023-01-25T13:19:51.420Z,4.00
2023-01-25T13:22:54.933Z,4.73
2023-01-25T13:25:25.466Z,4.60
2023-01-25T13:27:53.979Z,4.13
2023-01-25T13:30:32.216Z,4.47
2023-01-25T13:33:06.802Z,4.73
2023-01-25T13:35:40.084Z,4.50
2023-01-25T13:38:36.101Z,5.00
2023-01-25T13:41:12.951Z,5.73
2023-01-25T13:43:43.283Z,4.90
2023-01-25T13:46:14.837Z,4.60
2023-01-25T13:49:02.527Z,4.70
2023-01-25T13:51:35.943Z,4.87
2023-01-25T13:54:04.170Z,4.73
2023-01-25T13:56:35.378Z,4.47
2023-01-25T13:59:04.443Z,4.80
2023-01-25T14:01:33.541Z,4.40
2023-01-25T14:04:04.469Z,5.43
2023-01-25T14:06:36.090Z,4.30
2023-01-25T14:09:07.769Z,4.70
2023-01-25T14:11:44.012Z,4.50
2023-01-25T14:14:21.214Z,5.03
2023-01-25T14:17:10.965Z,4.17
2023-01-25T14:19:41.721Z,4.20
2023-01-25T14:22:22.643Z,4.47
2023-01-25T14:25:08.501Z,4.83
2023-01-25T14:27:43.191Z,3.90
2023-01-25T14:30:18.749Z,4.23
2023-01-25T14:32:47.186Z,4.40
2023-01-25T14:35:42.826Z,4.00
2023-01-25T14:38:29.613Z,4.73
2023-01-25T14:41:04.612Z,4.03
2023-01-25T14:43:34.291Z,4.60
2023-01-25T14:46:02.275Z,6.73
2023-01-25T14:48:38.134Z,5.07
2023-01-25T14:51:13.790Z,4.90
2023-01-25T14:53:45.641Z,4.80
2023-01-25T14:56:30.482Z,3.57
2023-01-25T14:59:00.558Z,4.53
2023-01-25T15:01:33.701Z,4.40
2023-01-25T15:04:05.144Z,4.33
2023-01-25T15:06:33.194Z,4.03
2023-01-25T15:09:04.333Z,3.50
2023-01-25T15:11:45.288Z,4.63
2023-01-25T15:14:19.664Z,4.00
2023-01-25T15:16:47.924Z,3.87
2023-01-25T15:19:27.630Z,4.07
2023-01-25T15:21:57.128Z,3.60
2023-01-25T15:24:25.767Z,3.63
2023-01-25T15:26:55.141Z,3.40
2023-01-25T15:29:27.108Z,3.90
2023-01-25T15:31:57.266Z,3.67
2023-01-25T15:34:29.224Z,3.27
2023-01-25T15:36:57.280Z,4.00
2023-01-25T15:39:25.295Z,4.80
2023-01-25T15:41:53.389Z,3.70
2023-01-25T15:44:30.600Z,3.73
2023-01-25T15:46:59.082Z,4.10
2023-01-25T15:49:28.293Z,3.77
2023-01-25T15:51:56.810Z,4.50
2023-01-25T15:54:25.426Z,3.60
2023-01-25T15:56:57.294Z,3.20
2023-01-25T15:59:27.667Z,3.17
2023-01-25T16:01:57.213Z,3.93
2023-01-25T16:04:26.363Z,3.53
2023-01-25T16:06:55.836Z,3.70
2023-01-25T16:09:25.448Z,2.90
2023-01-25T16:11:55.213Z,4.00
2023-01-25T16:14:28.872Z,4.47
2023-01-25T16:17:02.319Z,2.80
2023-01-25T16:19:34.321Z,2.97
2023-01-25T16:22:04.372Z,5.13
2023-01-25T16:24:32.685Z,3.70
2023-01-25T16:27:02.187Z,4.63
2023-01-25T16:29:30.377Z,3.90
2023-01-25T16:31:59.969Z,4.23
2023-01-25T16:34:35.930Z,4.20
2023-01-25T16:37:03.900Z,4.43
2023-01-25T16:39:32.462Z,3.60
2023-01-25T16:42:00.805Z,3.97
2023-01-25T16:44:28.997Z,3.80
2023-01-25T16:46:57.056Z,3.53
2023-01-25T16:49:27.660Z,3.70
2023-01-25T16:51:56.416Z,4.20
2023-01-25T16:54:27.676Z,4.07
2023-01-25T16:56:56.926Z,5.07
2023-01-25T16:59:25.847Z,4.77
2023-01-25T17:01:54.018Z,5.60
2023-01-25T17:04:22.063Z,4.90
2023-01-25T17:06:52.997Z,4.73
2023-01-25T17:09:24.106Z,5.17
2023-01-25T17:11:53.392Z,4.80
2023-01-25T17:14:22.141Z,4.20
2023-01-25T17:16:54.955Z,3.93
2023-01-25T17:19:23.578Z,4.63
2023-01-25T17:21:59.191Z,4.67
2023-01-25T17:24:27.522Z,4.70
2023-01-25T17:26:57.857Z,4.43
2023-01-25T17:29:25.989Z,4.73
2023-01-25T17:31:54.609Z,4.07
2023-01-25T17:34:22.845Z,4.17
2023-01-25T17:36:53.747Z,4.27
2023-01-25T17:39:22.585Z,4.07
2023-01-25T17:41:52.059Z,4.37
2023-01-25T17:44:21.380Z,3.90
2023-01-25T17:46:50.431Z,4.60
2023-01-25T17:49:21.996Z,4.13
2023-01-25T17:51:50.001Z,5.07
2023-01-25T17:54:19.718Z,4.73
2023-01-25T17:56:47.785Z,5.10
2023-01-25T17:59:15.751Z,4.63
2023-01-25T18:01:43.970Z,5.93
2023-01-25T18:04:13.223Z,6.00
2023-01-25T18:07:08.247Z,5.00
2023-01-25T18:09:38.486Z,4.73
2023-01-25T18:12:06.730Z,4.93
2023-01-25T18:14:40.535Z,4.73
2023-01-25T18:17:08.518Z,5.10
2023-01-25T18:19:36.591Z,4.73
2023-01-25T18:22:07.153Z,5.43
2023-01-25T18:24:37.218Z,5.30
2023-01-25T18:27:08.057Z,5.03
2023-01-25T18:29:45.469Z,4.87
2023-01-25T18:32:13.643Z,5.00
2023-01-25T18:34:41.632Z,5.37
2023-01-25T18:37:19.230Z,5.27
2023-01-25T18:39:49.723Z,5.53
2023-01-25T18:42:18.475Z,4.27
2023-01-25T18:44:48.429Z,4.63
2023-01-25T18:47:18.852Z,4.53
2023-01-25T18:49:47.609Z,4.90
2023-01-25T18:52:25.487Z,5.53
2023-01-25T18:54:54.881Z,4.40
2023-01-25T18:57:22.906Z,4.37
2023-01-25T18:59:51.433Z,4.40
2023-01-25T19:02:20.568Z,4.70
2023-01-25T19:04:48.640Z,4.80
2023-01-25T19:07:16.805Z,4.73
2023-01-25T19:09:44.873Z,5.03
2023-01-25T19:12:14.484Z,5.40
2023-01-25T19:14:42.494Z,5.77
2023-01-25T19:17:10.533Z,4.73
2023-01-25T19:19:38.481Z,5.33
2023-01-25T19:22:06.653Z,4.67
2023-01-25T19:24:34.821Z,5.27
2023-01-25T19:27:03.408Z,4.27
2023-01-25T19:29:32.923Z,4.17
2023-01-25T19:32:00.968Z,5.43
2023-01-25T19:34:29.025Z,4.20
2023-01-25T19:36:57.371Z,4.73
2023-01-25T19:39:25.326Z,5.40
2023-01-25T19:41:55.822Z,5.30
2023-01-25T19:44:28.603Z,5.10
2023-01-25T19:47:00.927Z,5.23
2023-01-25T19:49:28.926Z,5.37
2023-01-25T19:52:03.762Z,5.67
2023-01-25T19:54:32.753Z,4.40
2023-01-25T19:57:00.708Z,5.20
2023-01-25T19:59:33.169Z,4.90
2023-01-25T20:02:05.949Z,6.93
2023-01-25T20:04:33.959Z,5.40
2023-01-25T20:07:18.643Z,5.40
2023-01-25T20:09:53.079Z,4.70
2023-01-25T20:12:30.683Z,5.27
2023-01-25T20:14:58.626Z,4.60
2023-01-25T20:17:29.045Z,5.30
2023-01-25T20:19:57.582Z,4.90
2023-01-25T20:22:25.567Z,5.43
2023-01-25T20:24:53.607Z,4.87
2023-01-25T20:27:21.560Z,5.40
2023-01-25T20:29:49.548Z,5.03
2023-01-25T20:32:31.901Z,5.33
2023-01-25T20:35:06.717Z,5.50
2023-01-25T20:37:38.023Z,5.67
2023-01-25T20:40:06.906Z,5.60
2023-01-25T20:42:35.008Z,5.87
2023-01-25T20:45:05.596Z,5.20
2023-01-25T20:47:33.638Z,4.97
2023-01-25T20:50:01.848Z,6.50
2023-01-25T20:52:33.261Z,5.40
2023-01-25T20:55:11.450Z,5.57
2023-01-25T20:57:39.696Z,5.80
2023-01-25T21:00:10.774Z,5.20
2023-01-25T21:02:39.749Z,4.70
2023-01-25T21:05:08.793Z,5.23
2023-01-25T21:07:41.661Z,5.27
2023-01-25T21:10:11.109Z,5.27
2023-01-25T21:12:39.848Z,5.87
2023-01-25T21:15:09.871Z,6.33
2023-01-25T21:17:39.384Z,5.37
2023-01-25T21:20:11.000Z,5.23
2023-01-25T21:22:38.994Z,5.17
2023-01-25T21:25:09.398Z,6.40
2023-01-25T21:27:37.527Z,5.80
2023-01-25T21:30:06.219Z,5.80
2023-01-25T21:32:34.188Z,6.27
2023-01-25T21:35:02.200Z,5.43
2023-01-25T21:37:30.344Z,5.27
2023-01-25T21:39:58.368Z,5.53
2023-01-25T21:42:27.792Z,6.53
2023-01-25T21:45:13.288Z,7.00
2023-01-25T21:47:41.296Z,6.63
2023-01-25T21:50:28.488Z,6.10
2023-01-25T21:52:56.734Z,5.67
2023-01-25T21:55:24.715Z,6.13
2023-01-25T21:58:05.188Z,5.47
2023-01-25T22:00:35.060Z,5.87
2023-01-25T22:03:05.302Z,5.40
2023-01-25T22:05:33.255Z,5.73
2023-01-25T22:08:01.303Z,5.60
2023-01-25T22:10:29.365Z,5.53
2023-01-25T22:12:57.328Z,5.07
2023-01-25T22:15:26.757Z,5.40
2023-01-25T22:18:04.806Z,8.00
2023-01-25T22:20:39.885Z,6.33
2023-01-25T22:23:08.886Z,5.57
2023-01-25T22:25:42.977Z,5.47
2023-01-25T22:28:20.934Z,5.60
2023-01-25T22:30:50.509Z,5.17
2023-01-25T22:33:21.551Z,5.27
2023-01-25T22:35:57.454Z,5.90
2023-01-25T22:38:25.434Z,5.60
2023-01-25T22:40:55.211Z,5.10
2023-01-25T22:43:24.853Z,5.13
2023-01-25T22:45:54.495Z,5.23
2023-01-25T22:48:22.465Z,4.67
2023-01-25T22:50:50.536Z,4.73
2023-01-25T22:53:36.152Z,6.17
2023-01-25T22:56:05.828Z,5.23
2023-01-25T22:58:35.876Z,5.13
2023-01-25T23:01:08.919Z,5.60
2023-01-25T23:03:37.350Z,5.33
2023-01-25T23:06:09.336Z,5.47
2023-01-25T23:08:38.294Z,5.30
2023-01-25T23:11:09.193Z,5.27
2023-01-25T23:13:37.570Z,4.80
2023-01-25T23:16:08.855Z,5.13
2023-01-25T23:18:50.352Z,6.80
2023-01-25T23:21:19.747Z,4.97
2023-01-25T23:23:48.427Z,5.43
2023-01-25T23:26:17.516Z,5.90
2023-01-25T23:28:51.144Z,6.47
2023-01-25T23:31:24.225Z,5.37
2023-01-25T23:33:54.445Z,5.60
2023-01-25T23:36:24.625Z,6.60
2023-01-25T23:38:52.857Z,7.07
2023-01-25T23:41:24.373Z,6.27
2023-01-25T23:43:53.696Z,5.50
2023-01-25T23:46:30.935Z,5.40
2023-01-25T23:49:10.604Z,5.20
2023-01-25T23:51:47.634Z,6.67
2023-01-25T23:54:15.724Z,7.00
2023-01-25T23:56:43.696Z,9.70
2023-01-25T23:59:12.717Z,7.70
